createdAt,value
2023-03-25T00:02:30.339Z,93843.13
2023-03-25T00:04:57.271Z,93851.25
2023-03-25T00:07:23.874Z,93844.47
2023-03-25T00:09:50.541Z,93842.94
2023-03-25T00:12:19.086Z,93851.03
2023-03-25T00:14:54.892Z,93840.31
2023-03-25T00:17:23.165Z,93839.88
2023-03-25T00:19:50.662Z,93832.63
2023-03-25T00:22:18.919Z,93825.66
2023-03-25T00:24:45.500Z,93826.81
2023-03-25T00:27:14.369Z,93824.31
2023-03-25T00:29:44.263Z,93823.31
2023-03-25T00:32:12.368Z,93821.47
2023-03-25T00:34:41.974Z,93814.94
2023-03-25T00:37:09.744Z,93819.16
2023-03-25T00:39:38.012Z,93826.81
2023-03-25T00:42:05.565Z,93823.31
2023-03-25T00:44:32.598Z,93822.56
2023-03-25T00:46:59.275Z,93815.66
2023-03-25T00:49:28.675Z,93821.78
2023-03-25T00:51:56.616Z,93816.50
2023-03-25T00:54:23.961Z,93813.13
2023-03-25T00:56:52.779Z,93808.22
2023-03-25T00:59:19.633Z,93803.63
2023-03-25T01:01:48.871Z,93800.81
2023-03-25T01:04:16.658Z,93791.66
2023-03-25T01:06:44.094Z,93795.44
2023-03-25T01:09:13.798Z,93798.84
2023-03-25T01:11:42.957Z,93793.13
2023-03-25T01:14:14.442Z,93782.38
2023-03-25T01:16:41.320Z,93782.25
2023-03-25T01:19:08.485Z,93783.53
2023-03-25T01:21:36.722Z,93781.69
2023-03-25T01:24:05.211Z,93773.31
2023-03-25T01:26:32.174Z,93770.38
2023-03-25T01:28:59.125Z,93767.19
2023-03-25T01:31:30.340Z,93763.53
2023-03-25T01:33:58.312Z,93771.19
2023-03-25T01:36:31.145Z,93766.75
2023-03-25T01:38:59.867Z,93756.94
2023-03-25T01:41:35.720Z,93762.66
2023-03-25T01:44:14.785Z,93757.13
2023-03-25T01:46:45.548Z,93753.38
2023-03-25T01:49:44.388Z,93749.41
2023-03-25T01:52:21.436Z,93758.59
2023-03-25T01:54:52.265Z,93760.97
2023-03-25T01:57:22.311Z,93757.72
2023-03-25T01:59:52.004Z,93749.09
2023-03-25T02:02:19.474Z,93753.84
2023-03-25T02:04:59.275Z,93750.19
2023-03-25T02:07:33.160Z,93754.72
2023-03-25T02:10:02.592Z,93750.38
2023-03-25T02:12:29.378Z,93750.34
2023-03-25T02:14:58.470Z,93751.25
2023-03-25T02:17:54.305Z,93745.81
2023-03-25T02:20:48.745Z,93748.34
2023-03-25T02:23:42.024Z,93739.69
2023-03-25T02:26:29.792Z,93737.16
2023-03-25T02:29:24.115Z,93737.50
2023-03-25T02:32:17.923Z,93738.16
2023-03-25T02:35:04.795Z,93738.84
2023-03-25T02:37:49.979Z,93746.03
2023-03-25T02:40:41.774Z,93732.13
2023-03-25T02:43:23.165Z,93730.84
2023-03-25T02:45:58.122Z,93731.66
2023-03-25T02:48:35.875Z,93725.00
2023-03-25T02:51:10.488Z,93725.28
2023-03-25T02:53:39.677Z,93725.22
2023-03-25T02:56:12.547Z,93722.94
2023-03-25T02:58:41.938Z,93718.22
2023-03-25T03:01:10.251Z,93726.34
2023-03-25T03:03:37.357Z,93725.78
2023-03-25T03:06:06.671Z,93726.63
2023-03-25T03:08:41.991Z,93714.19
2023-03-25T03:11:11.410Z,93712.69
2023-03-25T03:13:56.368Z,93713.53
2023-03-25T03:16:50.062Z,93715.38
2023-03-25T03:19:24.216Z,93723.41
2023-03-25T03:22:02.930Z,93708.22
2023-03-25T03:24:38.313Z,93717.44
2023-03-25T03:27:23.887Z,93722.72
2023-03-25T03:29:56.471Z,93726.00
2023-03-25T03:32:32.768Z,93718.44
2023-03-25T03:35:06.809Z,93725.84
2023-03-25T03:37:38.098Z,93725.06
2023-03-25T03:40:09.173Z,93726.94
2023-03-25T03:43:08.031Z,93727.16
2023-03-25T03:45:41.396Z,93735.66
2023-03-25T03:48:14.935Z,93736.63
2023-03-25T03:50:48.789Z,93737.44
2023-03-25T03:53:26.583Z,93726.47
2023-03-25T03:56:03.739Z,93726.25
2023-03-25T03:58:35.143Z,93736.78
2023-03-25T04:01:13.896Z,93730.59
2023-03-25T04:03:57.754Z,93723.34
2023-03-25T04:06:42.053Z,93726.47
2023-03-25T04:09:27.124Z,93731.31
2023-03-25T04:12:02.948Z,93729.06
2023-03-25T04:14:30.301Z,93725.16
2023-03-25T04:16:56.913Z,93723.59
2023-03-25T04:19:23.897Z,93723.69
2023-03-25T04:21:50.517Z,93723.75
2023-03-25T04:24:19.859Z,93715.78
2023-03-25T04:26:47.755Z,93718.97
2023-03-25T04:29:14.453Z,93719.53
2023-03-25T04:31:50.055Z,93721.00
2023-03-25T04:34:16.792Z,93727.38
2023-03-25T04:36:43.729Z,93731.66
2023-03-25T04:39:12.724Z,93732.94
2023-03-25T04:41:39.832Z,93738.28
2023-03-25T04:44:09.215Z,93725.31
2023-03-25T04:46:37.116Z,93732.72
2023-03-25T04:49:06.592Z,93739.34
2023-03-25T04:51:33.395Z,93740.91
2023-03-25T04:53:59.965Z,93739.03
2023-03-25T04:56:27.554Z,93737.13
2023-03-25T04:58:54.261Z,93739.56
2023-03-25T05:01:30.758Z,93728.16
2023-03-25T05:04:06.244Z,93725.53
2023-03-25T05:06:33.723Z,93735.25
2023-03-25T05:09:04.548Z,93731.94
2023-03-25T05:11:32.742Z,93734.22
2023-03-25T05:14:03.930Z,93740.00
2023-03-25T05:16:33.221Z,93744.16
2023-03-25T05:18:59.874Z,93732.47
2023-03-25T05:21:27.388Z,93742.41
2023-03-25T05:23:54.304Z,93738.63
2023-03-25T05:26:27.112Z,93743.72
2023-03-25T05:28:56.728Z,93737.19
2023-03-25T05:31:23.442Z,93733.53
2023-03-25T05:34:10.793Z,93726.66
2023-03-25T05:36:37.991Z,93735.59
2023-03-25T05:39:13.308Z,93738.41
2023-03-25T05:41:40.002Z,93737.72
2023-03-25T05:44:08.406Z,93744.75
2023-03-25T05:46:35.957Z,93749.78
2023-03-25T05:49:03.121Z,93746.38
2023-03-25T05:51:34.167Z,93747.22
2023-03-25T05:54:02.216Z,93743.06
2023-03-25T05:56:29.825Z,93741.16
2023-03-25T05:58:57.575Z,93745.84
2023-03-25T06:01:32.625Z,93744.38
2023-03-25T06:04:02.589Z,93737.19
2023-03-25T06:06:30.298Z,93736.88
2023-03-25T06:08:57.026Z,93738.50
2023-03-25T06:11:23.635Z,93736.19
2023-03-25T06:13:51.503Z,93726.69
2023-03-25T06:16:20.754Z,93731.78
2023-03-25T06:18:51.443Z,93728.38
2023-03-25T06:21:19.658Z,93720.31
2023-03-25T06:23:49.512Z,93727.41
2023-03-25T06:26:17.311Z,93730.84
2023-03-25T06:28:44.331Z,93736.72
2023-03-25T06:31:22.716Z,93728.66
2023-03-25T06:33:50.905Z,93725.13
2023-03-25T06:36:20.320Z,93725.22
2023-03-25T06:38:49.559Z,93740.34
2023-03-25T06:41:20.475Z,93745.44
2023-03-25T06:43:48.860Z,93739.59
2023-03-25T06:46:16.893Z,93742.00
2023-03-25T06:48:43.692Z,93744.03
2023-03-25T06:51:10.501Z,93747.34
2023-03-25T06:53:37.166Z,93752.69
2023-03-25T06:56:03.976Z,93745.25
2023-03-25T06:58:39.001Z,93757.81
2023-03-25T07:01:07.836Z,93753.47
2023-03-25T07:03:42.072Z,93760.16
2023-03-25T07:06:14.889Z,93755.81
2023-03-25T07:08:41.561Z,93745.03
2023-03-25T07:11:12.119Z,93747.50
2023-03-25T07:13:38.817Z,93739.53
2023-03-25T07:16:09.266Z,93745.78
2023-03-25T07:18:38.958Z,93740.69
2023-03-25T07:21:08.551Z,93740.25
2023-03-25T07:23:35.373Z,93735.88
2023-03-25T07:26:02.336Z,93747.69
2023-03-25T07:28:34.595Z,93740.59
2023-03-25T07:31:02.296Z,93735.69
2023-03-25T07:33:32.408Z,93733.00
2023-03-25T07:36:02.261Z,93740.03
2023-03-25T07:38:29.141Z,93743.03
2023-03-25T07:40:55.947Z,93735.75
2023-03-25T07:43:22.560Z,93728.06
2023-03-25T07:45:50.349Z,93723.78
2023-03-25T07:48:17.012Z,93726.13
2023-03-25T07:50:45.725Z,93723.81
2023-03-25T07:53:12.375Z,93721.06
2023-03-25T07:55:39.009Z,93714.19
2023-03-25T07:58:05.642Z,93709.22
2023-03-25T08:00:32.216Z,93706.09
2023-03-25T08:03:00.310Z,93696.84
2023-03-25T08:05:28.063Z,93697.25
2023-03-25T08:07:55.577Z,93697.28
2023-03-25T08:10:25.315Z,93695.66
2023-03-25T08:12:53.459Z,93692.47
2023-03-25T08:15:24.916Z,93689.75
2023-03-25T08:17:54.466Z,93686.22
2023-03-25T08:20:23.976Z,93689.38
2023-03-25T08:22:51.383Z,93684.75
2023-03-25T08:25:25.840Z,93689.06
2023-03-25T08:27:52.464Z,93688.78
2023-03-25T08:30:21.473Z,93690.41
2023-03-25T08:32:57.117Z,93691.66
2023-03-25T08:35:24.553Z,93678.56
2023-03-25T08:37:54.006Z,93675.03
2023-03-25T08:40:23.473Z,93677.91
2023-03-25T08:42:50.509Z,93668.63
2023-03-25T08:45:17.093Z,93672.47
2023-03-25T08:47:47.028Z,93668.56
2023-03-25T08:50:19.668Z,93672.25
2023-03-25T08:52:47.600Z,93671.53
2023-03-25T08:55:17.746Z,93673.72
2023-03-25T08:57:44.961Z,93672.63
2023-03-25T09:00:15.001Z,93666.16
2023-03-25T09:02:42.592Z,93665.28
2023-03-25T09:05:13.142Z,93668.66
2023-03-25T09:07:40.564Z,93667.66
2023-03-25T09:10:13.672Z,93658.94
2023-03-25T09:12:41.078Z,93654.69
2023-03-25T09:15:08.909Z,93657.59
2023-03-25T09:17:37.897Z,93646.31
2023-03-25T09:20:06.086Z,93641.13
2023-03-25T09:22:37.451Z,93642.03
2023-03-25T09:25:04.866Z,93644.06
2023-03-25T09:27:31.469Z,93634.34
2023-03-25T09:29:58.156Z,93638.41
2023-03-25T09:32:25.596Z,93633.03
2023-03-25T09:34:52.946Z,93639.03
2023-03-25T09:37:19.657Z,93642.47
2023-03-25T09:39:46.274Z,93635.91
2023-03-25T09:42:33.124Z,93635.59
2023-03-25T09:45:11.948Z,93633.84
2023-03-25T09:47:41.676Z,93630.50
2023-03-25T09:50:14.472Z,93625.50
2023-03-25T09:52:46.718Z,93622.88
2023-03-25T09:55:21.197Z,93619.53
2023-03-25T09:57:55.177Z,93623.44
2023-03-25T10:00:26.068Z,93623.34
2023-03-25T10:03:24.987Z,93620.28
2023-03-25T10:06:13.326Z,93606.44
2023-03-25T10:09:14.923Z,93614.28
2023-03-25T10:11:57.896Z,93605.06
2023-03-25T10:14:33.378Z,93598.75
2023-03-25T10:17:45.228Z,93592.16
2023-03-25T10:20:17.616Z,93582.66
2023-03-25T10:23:01.526Z,93587.91
2023-03-25T10:25:31.232Z,93570.72
2023-03-25T10:27:59.695Z,93565.56
2023-03-25T10:30:30.371Z,93573.56
2023-03-25T10:32:58.702Z,93572.19
2023-03-25T10:35:34.230Z,93576.44
2023-03-25T10:38:14.469Z,93559.38
2023-03-25T10:40:44.859Z,93558.19
2023-03-25T10:43:23.303Z,93557.94
2023-03-25T10:45:53.203Z,93548.41
2023-03-25T10:48:28.069Z,93548.41
2023-03-25T10:51:07.846Z,93549.19
2023-03-25T10:53:35.670Z,93551.31
2023-03-25T10:56:09.804Z,93545.63
2023-03-25T10:58:39.994Z,93541.72
2023-03-25T11:01:18.337Z,93535.00
2023-03-25T11:03:49.330Z,93532.53
2023-03-25T11:06:26.740Z,93526.91
2023-03-25T11:09:08.605Z,93530.72
2023-03-25T11:11:36.641Z,93515.84
2023-03-25T11:14:03.784Z,93518.97
2023-03-25T11:16:35.911Z,93509.44
2023-03-25T11:19:03.477Z,93513.78
2023-03-25T11:21:35.621Z,93511.34
2023-03-25T11:24:06.087Z,93508.47
2023-03-25T11:26:40.955Z,93501.09
2023-03-25T11:29:14.529Z,93498.59
2023-03-25T11:31:42.622Z,93491.09
2023-03-25T11:34:12.347Z,93491.84
2023-03-25T11:36:47.217Z,93486.13
2023-03-25T11:39:24.072Z,93484.94
2023-03-25T11:41:52.048Z,93480.50
2023-03-25T11:44:39.478Z,93480.13
2023-03-25T11:47:09.458Z,93472.06
2023-03-25T11:49:40.045Z,93475.28
2023-03-25T11:52:13.388Z,93469.19
2023-03-25T11:54:41.629Z,93468.84
2023-03-25T11:57:16.219Z,93462.72
2023-03-25T11:59:48.252Z,93470.31
2023-03-25T12:02:38.995Z,93469.25
2023-03-25T12:05:08.625Z,93470.44
2023-03-25T12:07:42.482Z,93467.19
2023-03-25T12:10:34.924Z,93461.34
2023-03-25T12:13:22.988Z,93462.63
2023-03-25T12:16:03.093Z,93450.59
2023-03-25T12:18:55.698Z,93456.69
2023-03-25T12:21:23.421Z,93458.38
2023-03-25T12:24:29.329Z,93460.78
2023-03-25T12:27:17.527Z,93456.84
2023-03-25T12:30:15.308Z,93460.16
2023-03-25T12:33:16.472Z,93464.94
2023-03-25T12:36:08.393Z,93470.25
2023-03-25T12:39:02.239Z,93454.44
2023-03-25T12:41:47.275Z,93465.63
2023-03-25T12:44:22.664Z,93453.44
2023-03-25T12:46:52.215Z,93460.25
2023-03-25T12:49:43.691Z,93451.91
2023-03-25T12:52:29.432Z,93460.16
2023-03-25T12:55:33.647Z,93447.53
2023-03-25T12:58:18.140Z,93455.66
2023-03-25T13:01:03.586Z,93452.19
2023-03-25T13:03:51.680Z,93462.13
2023-03-25T13:06:35.551Z,93450.84
2023-03-25T13:09:19.762Z,93460.28
2023-03-25T13:12:05.518Z,93444.47
2023-03-25T13:14:51.112Z,93456.09
2023-03-25T13:17:47.796Z,93456.44
2023-03-25T13:20:20.134Z,93456.38
2023-03-25T13:22:53.015Z,93460.97
2023-03-25T13:25:25.887Z,93469.25
2023-03-25T13:27:56.619Z,93456.94
2023-03-25T13:30:34.866Z,93458.25
2023-03-25T13:33:25.151Z,93461.94
2023-03-25T13:36:18.054Z,93462.34
2023-03-25T13:38:56.525Z,93468.69
2023-03-25T13:42:03.359Z,93489.78
2023-03-25T13:44:43.363Z,93494.59
2023-03-25T13:47:23.660Z,93526.03
2023-03-25T13:49:57.260Z,93505.81
2023-03-25T13:52:33.404Z,93524.81
2023-03-25T13:55:14.150Z,93531.22
2023-03-25T13:58:11.954Z,93527.13
2023-03-25T14:01:07.297Z,93527.91
2023-03-25T14:03:58.637Z,93525.06
2023-03-25T14:06:53.475Z,93513.66
2023-03-25T14:09:38.563Z,93512.94
2023-03-25T14:12:21.385Z,93511.22
2023-03-25T14:15:03.442Z,93505.16
2023-03-25T14:17:31.757Z,93504.22
2023-03-25T14:20:00.543Z,93503.75
2023-03-25T14:22:31.944Z,93506.53
2023-03-25T14:25:00.178Z,93505.69
2023-03-25T14:27:31.377Z,93510.28
2023-03-25T14:30:18.721Z,93504.59
2023-03-25T14:32:45.877Z,93492.59
2023-03-25T14:35:37.438Z,93479.22
2023-03-25T14:38:09.929Z,93430.28
2023-03-25T14:40:47.952Z,93411.28
2023-03-25T14:43:26.342Z,93412.13
2023-03-25T14:46:15.423Z,93406.38
2023-03-25T14:48:53.752Z,93411.50
2023-03-25T14:51:26.609Z,93412.06
2023-03-25T14:54:13.264Z,93407.66
2023-03-25T14:56:57.899Z,93402.84
2023-03-25T14:59:43.512Z,93399.25
2023-03-25T15:02:22.357Z,93408.81
2023-03-25T15:04:57.011Z,93402.59
2023-03-25T15:07:42.950Z,93405.13
2023-03-25T15:10:20.784Z,93402.81
2023-03-25T15:12:51.776Z,93400.81
2023-03-25T15:15:46.223Z,93401.84
2023-03-25T15:18:36.005Z,93401.84
2023-03-25T15:21:09.489Z,93397.81
2023-03-25T15:23:45.629Z,93391.34
2023-03-25T15:26:39.686Z,93392.69
2023-03-25T15:29:24.401Z,93386.84
2023-03-25T15:32:08.773Z,93383.72
2023-03-25T15:35:27.341Z,93384.41
2023-03-25T15:37:57.298Z,93374.69
2023-03-25T15:40:49.934Z,93380.38
2023-03-25T15:43:53.628Z,93375.91
2023-03-25T15:46:47.718Z,93374.91
2023-03-25T15:49:35.625Z,93379.09
2023-03-25T15:52:23.705Z,93377.84
2023-03-25T15:55:02.227Z,93382.47
2023-03-25T15:57:48.631Z,93378.88
2023-03-25T16:00:32.898Z,93379.16
2023-03-25T16:03:02.501Z,93375.19
2023-03-25T16:05:37.465Z,93370.63
2023-03-25T16:08:15.849Z,93379.88
2023-03-25T16:10:44.766Z,93374.41
2023-03-25T16:13:17.824Z,93386.72
2023-03-25T16:15:45.614Z,93383.56
2023-03-25T16:18:16.663Z,93371.28
2023-03-25T16:20:45.317Z,93361.69
2023-03-25T16:23:21.042Z,93365.28
2023-03-25T16:25:49.200Z,93370.41
2023-03-25T16:28:20.926Z,93375.41
2023-03-25T16:30:53.812Z,93362.81
2023-03-25T16:33:26.855Z,93371.00
2023-03-25T16:35:59.262Z,93369.00
2023-03-25T16:38:26.172Z,93359.38
2023-03-25T16:41:00.885Z,93355.19
2023-03-25T16:43:27.992Z,93365.97
2023-03-25T16:45:59.630Z,93357.31
2023-03-25T16:48:32.418Z,93355.00
2023-03-25T16:51:03.070Z,93371.25
2023-03-25T16:53:34.178Z,93354.84
2023-03-25T16:56:30.646Z,93361.78
2023-03-25T16:59:18.229Z,93359.81
2023-03-25T17:01:52.678Z,93363.72
2023-03-25T17:04:22.809Z,93356.44
2023-03-25T17:06:53.158Z,93363.38
2023-03-25T17:09:28.392Z,93358.00
2023-03-25T17:11:57.698Z,93356.91
2023-03-25T17:14:33.653Z,93353.94
2023-03-25T17:17:22.061Z,93348.91
2023-03-25T17:19:52.668Z,93355.03
2023-03-25T17:22:33.625Z,93348.63
2023-03-25T17:25:51.320Z,93358.75
2023-03-25T17:28:33.898Z,93351.47
2023-03-25T17:31:00.829Z,93352.66
2023-03-25T17:33:39.838Z,93356.59
2023-03-25T17:36:12.818Z,93371.19
2023-03-25T17:38:45.144Z,93366.16
2023-03-25T17:41:14.556Z,93369.59
2023-03-25T17:43:48.792Z,93375.50
2023-03-25T17:46:21.972Z,93363.94
2023-03-25T17:48:50.759Z,93365.19
2023-03-25T17:51:19.189Z,93360.00
2023-03-25T17:53:46.059Z,93367.09
2023-03-25T17:56:13.722Z,93353.59
2023-03-25T17:58:40.939Z,93360.56
2023-03-25T18:01:09.936Z,93359.50
2023-03-25T18:03:37.371Z,93353.78
2023-03-25T18:06:05.335Z,93352.69
2023-03-25T18:08:32.433Z,93353.78
2023-03-25T18:10:59.385Z,93354.16
2023-03-25T18:13:27.264Z,93352.22
2023-03-25T18:15:55.453Z,93360.66
2023-03-25T18:18:24.927Z,93360.28
2023-03-25T18:20:53.176Z,93351.53
2023-03-25T18:23:20.098Z,93360.00
2023-03-25T18:25:50.017Z,93364.56
2023-03-25T18:28:17.175Z,93360.41
2023-03-25T18:30:49.380Z,93365.50
2023-03-25T18:33:17.299Z,93378.22
2023-03-25T18:35:45.389Z,93372.06
2023-03-25T18:38:17.913Z,93368.53
2023-03-25T18:40:45.219Z,93370.88
2023-03-25T18:43:12.057Z,93363.25
2023-03-25T18:45:41.246Z,93371.75
2023-03-25T18:48:10.988Z,93365.59
2023-03-25T18:50:41.962Z,93368.69
2023-03-25T18:53:08.615Z,93367.56
2023-03-25T18:55:37.277Z,93371.78
2023-03-25T18:58:04.660Z,93367.22
2023-03-25T19:00:36.783Z,93379.94
2023-03-25T19:03:04.207Z,93376.88
2023-03-25T19:05:32.706Z,93377.25
2023-03-25T19:07:59.377Z,93384.19
2023-03-25T19:10:31.609Z,93381.50
2023-03-25T19:13:02.130Z,93380.03
2023-03-25T19:15:30.960Z,93379.59
2023-03-25T19:17:58.636Z,93380.44
2023-03-25T19:20:29.456Z,93381.66
2023-03-25T19:22:56.608Z,93373.56
2023-03-25T19:25:23.140Z,93372.00
2023-03-25T19:27:50.458Z,93366.66
2023-03-25T19:30:20.915Z,93361.25
2023-03-25T19:32:50.035Z,93364.72
2023-03-25T19:35:18.530Z,93372.03
2023-03-25T19:37:50.800Z,93372.41
2023-03-25T19:40:28.217Z,93361.69
2023-03-25T19:42:57.045Z,93359.75
2023-03-25T19:45:25.233Z,93367.84
2023-03-25T19:47:52.587Z,93365.63
2023-03-25T19:50:42.893Z,93360.63
2023-03-25T19:53:09.674Z,93357.53
2023-03-25T19:55:36.296Z,93357.53
2023-03-25T19:58:02.988Z,93364.44
2023-03-25T20:00:30.591Z,93366.41
2023-03-25T20:03:00.662Z,93360.63
2023-03-25T20:05:31.932Z,93359.88
2023-03-25T20:07:59.258Z,93355.66
2023-03-25T20:10:28.341Z,93367.66
2023-03-25T20:12:55.417Z,93385.34
2023-03-25T20:15:27.271Z,93383.81
2023-03-25T20:17:55.001Z,93382.66
2023-03-25T20:20:22.797Z,93384.59
2023-03-25T20:22:49.472Z,93388.41
2023-03-25T20:25:17.384Z,93389.59
2023-03-25T20:27:45.107Z,93387.66
2023-03-25T20:30:15.476Z,93399.16
2023-03-25T20:32:43.777Z,93405.28
2023-03-25T20:35:14.053Z,93409.88
2023-03-25T20:37:42.974Z,93404.13
2023-03-25T20:40:12.869Z,93412.19
2023-03-25T20:42:41.853Z,93415.63
2023-03-25T20:45:11.045Z,93405.97
2023-03-25T20:47:37.859Z,93412.88
2023-03-25T20:50:05.716Z,93412.88
2023-03-25T20:52:32.382Z,93424.78
2023-03-25T20:54:59.011Z,93429.78
2023-03-25T20:57:25.742Z,93435.16
2023-03-25T20:59:56.578Z,93447.44
2023-03-25T21:02:23.915Z,93462.50
2023-03-25T21:04:51.085Z,93461.00
2023-03-25T21:07:19.340Z,93459.06
2023-03-25T21:09:47.758Z,93469.03
2023-03-25T21:12:14.662Z,93466.56
2023-03-25T21:14:41.965Z,93463.59
2023-03-25T21:17:09.791Z,93472.97
2023-03-25T21:19:36.740Z,93465.84
2023-03-25T21:22:04.180Z,93463.63
2023-03-25T21:24:31.720Z,93458.66
2023-03-25T21:26:58.353Z,93449.09
2023-03-25T21:29:24.969Z,93462.09
2023-03-25T21:31:52.189Z,93458.97
2023-03-25T21:34:18.861Z,93462.00
2023-03-25T21:36:45.476Z,93454.66
2023-03-25T21:39:12.240Z,93461.97
2023-03-25T21:41:38.879Z,93457.34
2023-03-25T21:44:06.638Z,93448.44
2023-03-25T21:46:34.051Z,93446.13
2023-03-25T21:49:02.303Z,93449.31
2023-03-25T21:51:30.831Z,93449.63
2023-03-25T21:53:59.783Z,93456.88
2023-03-25T21:56:30.924Z,93461.84
2023-03-25T21:58:58.163Z,93454.28
2023-03-25T22:01:29.711Z,93458.56
2023-03-25T22:03:58.118Z,93450.16
2023-03-25T22:06:29.837Z,93454.34
2023-03-25T22:08:57.265Z,93457.13
2023-03-25T22:11:34.617Z,93460.13
2023-03-25T22:14:02.239Z,93469.38
2023-03-25T22:16:28.997Z,93462.91
2023-03-25T22:18:55.967Z,93464.03
2023-03-25T22:21:25.787Z,93461.34
2023-03-25T22:23:57.427Z,93450.91
2023-03-25T22:26:26.739Z,93459.03
2023-03-25T22:29:00.608Z,93453.25
2023-03-25T22:31:32.524Z,93456.59
2023-03-25T22:34:04.289Z,93462.03
2023-03-25T22:36:32.603Z,93452.84
2023-03-25T22:39:00.799Z,93451.28
2023-03-25T22:41:27.863Z,93458.22
2023-03-25T22:43:55.891Z,93462.13
2023-03-25T22:46:23.091Z,93466.69
2023-03-25T22:48:50.430Z,93479.97
2023-03-25T22:51:19.765Z,93486.44
2023-03-25T22:53:47.230Z,93481.19
2023-03-25T22:56:14.390Z,93487.72
2023-03-25T22:58:41.521Z,93520.97
2023-03-25T23:01:23.960Z,93542.41
2023-03-25T23:03:52.289Z,93573.69
2023-03-25T23:06:20.381Z,93567.25
2023-03-25T23:08:47.610Z,93586.06
2023-03-25T23:11:21.006Z,93601.69
2023-03-25T23:13:51.563Z,93598.78
2023-03-25T23:16:20.899Z,93603.75
2023-03-25T23:18:48.149Z,93617.13
2023-03-25T23:21:17.289Z,93625.63
2023-03-25T23:23:52.530Z,93621.84
2023-03-25T23:26:24.861Z,93622.25
2023-03-25T23:28:53.560Z,93636.41
2023-03-25T23:31:28.625Z,93628.78
2023-03-25T23:33:58.524Z,93640.44
2023-03-25T23:36:28.221Z,93639.22
2023-03-25T23:38:55.038Z,93639.22
2023-03-25T23:41:23.039Z,93653.94
2023-03-25T23:43:54.368Z,93652.94
2023-03-25T23:46:22.185Z,93655.59
2023-03-25T23:48:49.485Z,93655.16
2023-03-25T23:51:20.243Z,93677.16
2023-03-25T23:53:49.460Z,93671.78
2023-03-25T23:56:18.094Z,93666.88
2023-03-25T23:58:44.992Z,93667.00
